Rechercher aéroport 
image banner adimage banner adimage banner ad
image banner ad

KCLR - Cliff Hatfield Memorial

Situé à Calipatria, United States

ICAO - CLR, IATA - CLR

Données fournies par Airmate  

Information générale

Coordonnées: N33°7'53" W115°31'17"
Élévation : -182 feet MSL.
Variation magnétique : 13° East
Voir autres Aéroports à California

Données opérationnelles

Special qualification required
Heure actuelle UTC:
Heure actuelle locale:
Météo à : KIPL - Imperial County ( 33 km )
METAR: KIPL 251053Z AUTO 12009KT 10SM CLR 31/24 A2982 RMK AO2 SLP097 T03060244
TAF: KIPL 250520Z 2506/2606 12010KT P6SM FEW120 BKN150 FM251500 11012G18KT P6SM OVC100 FM252000 12005KT P6SM VCSH SCT080 BKN120 FM260100 13008KT P6SM FEW080 BKN120
Voir NOTAMs / SUP AIP / TFR affectant cet aéroport [VIEW]
Fréquences de communication: [VIEW]

Pistes:

Identifiant RWYQFULongueur (ft)Largeur (ft)SurfaceLDA (ft)
0891°342350ASPH
26271°342350ASPH

Coordonnées de l'aéroport

Adresse: Calipatria United States

Vue satellite de KCLR